sensor_id;sensor_type;location;lat;lon;timestamp;P1;durP1;ratioP1;P2;durP2;ratioP2
12302;SDS011;6214;48.012;7.862;2022-11-23T00:00:56;14.80;;;1.77;;
12302;SDS011;6214;48.012;7.862;2022-11-23T00:03:23;14.00;;;1.50;;
12302;SDS011;6214;48.012;7.862;2022-11-23T00:05:50;13.88;;;2.00;;
12302;SDS011;6214;48.012;7.862;2022-11-23T00:08:17;14.60;;;2.30;;
12302;SDS011;6214;48.012;7.862;2022-11-23T00:10:43;13.35;;;1.92;;
12302;SDS011;6214;48.012;7.862;2022-11-23T00:13:10;14.15;;;1.98;;
12302;SDS011;6214;48.012;7.862;2022-11-23T00:15:39;14.10;;;1.63;;
12302;SDS011;6214;48.012;7.862;2022-11-23T00:18:06;12.80;;;1.40;;
12302;SDS011;6214;48.012;7.862;2022-11-23T00:20:33;13.70;;;1.53;;
12302;SDS011;6214;48.012;7.862;2022-11-23T00:23:00;12.77;;;1.57;;
12302;SDS011;6214;48.012;7.862;2022-11-23T00:25:26;13.03;;;1.50;;
12302;SDS011;6214;48.012;7.862;2022-11-23T00:27:54;13.40;;;1.60;;
12302;SDS011;6214;48.012;7.862;2022-11-23T00:30:21;14.30;;;1.50;;
12302;SDS011;6214;48.012;7.862;2022-11-23T00:32:48;12.35;;;1.40;;
12302;SDS011;6214;48.012;7.862;2022-11-23T00:35:15;13.00;;;1.50;;
12302;SDS011;6214;48.012;7.862;2022-11-23T00:37:42;13.30;;;1.40;;
12302;SDS011;6214;48.012;7.862;2022-11-23T00:40:09;12.90;;;1.30;;
12302;SDS011;6214;48.012;7.862;2022-11-23T00:42:36;13.65;;;1.50;;
12302;SDS011;6214;48.012;7.862;2022-11-23T00:45:03;14.90;;;1.75;;
12302;SDS011;6214;48.012;7.862;2022-11-23T00:47:30;13.30;;;1.60;;
12302;SDS011;6214;48.012;7.862;2022-11-23T00:49:57;12.70;;;1.40;;
12302;SDS011;6214;48.012;7.862;2022-11-23T00:52:24;13.30;;;1.37;;
12302;SDS011;6214;48.012;7.862;2022-11-23T00:54:51;14.40;;;1.80;;
12302;SDS011;6214;48.012;7.862;2022-11-23T00:57:18;14.23;;;1.60;;
12302;SDS011;6214;48.012;7.862;2022-11-23T00:59:45;12.52;;;1.38;;
12302;SDS011;6214;48.012;7.862;2022-11-23T01:02:11;12.70;;;1.38;;
12302;SDS011;6214;48.012;7.862;2022-11-23T01:04:38;13.70;;;1.50;;
12302;SDS011;6214;48.012;7.862;2022-11-23T01:07:05;12.80;;;1.50;;
12302;SDS011;6214;48.012;7.862;2022-11-23T01:09:32;13.43;;;1.67;;
12302;SDS011;6214;48.012;7.862;2022-11-23T01:11:59;13.60;;;1.40;;
12302;SDS011;6214;48.012;7.862;2022-11-23T01:14:26;13.40;;;1.30;;
12302;SDS011;6214;48.012;7.862;2022-11-23T01:16:52;14.48;;;1.52;;
12302;SDS011;6214;48.012;7.862;2022-11-23T01:19:19;12.60;;;1.33;;
12302;SDS011;6214;48.012;7.862;2022-11-23T01:21:46;12.25;;;1.42;;
12302;SDS011;6214;48.012;7.862;2022-11-23T01:24:14;12.90;;;1.52;;
12302;SDS011;6214;48.012;7.862;2022-11-23T01:26:49;13.60;;;1.20;;
12302;SDS011;6214;48.012;7.862;2022-11-23T01:29:17;14.18;;;1.50;;
12302;SDS011;6214;48.012;7.862;2022-11-23T01:31:44;13.65;;;1.50;;
12302;SDS011;6214;48.012;7.862;2022-11-23T01:34:12;13.82;;;1.52;;
12302;SDS011;6214;48.012;7.862;2022-11-23T01:36:40;12.83;;;1.50;;
12302;SDS011;6214;48.012;7.862;2022-11-23T01:39:08;14.93;;;1.40;;
12302;SDS011;6214;48.012;7.862;2022-11-23T01:41:37;13.38;;;1.50;;
12302;SDS011;6214;48.012;7.862;2022-11-23T01:47:03;12.55;;;1.23;;
12302;SDS011;6214;48.012;7.862;2022-11-23T01:49:34;14.00;;;1.80;;
12302;SDS011;6214;48.012;7.862;2022-11-23T01:52:15;13.80;;;1.50;;
12302;SDS011;6214;48.012;7.862;2022-11-23T01:54:47;14.00;;;1.90;;
12302;SDS011;6214;48.012;7.862;2022-11-23T01:57:18;13.10;;;1.40;;
12302;SDS011;6214;48.012;7.862;2022-11-23T01:59:53;13.13;;;1.60;;
12302;SDS011;6214;48.012;7.862;2022-11-23T02:02:21;13.65;;;1.70;;
12302;SDS011;6214;48.012;7.862;2022-11-23T02:04:48;14.45;;;1.60;;
12302;SDS011;6214;48.012;7.862;2022-11-23T02:07:18;14.10;;;1.70;;
12302;SDS011;6214;48.012;7.862;2022-11-23T02:09:47;14.63;;;1.60;;
12302;SDS011;6214;48.012;7.862;2022-11-23T02:12:14;14.47;;;1.30;;
12302;SDS011;6214;48.012;7.862;2022-11-23T02:14:41;13.55;;;1.70;;
12302;SDS011;6214;48.012;7.862;2022-11-23T02:17:09;14.32;;;1.48;;
12302;SDS011;6214;48.012;7.862;2022-11-23T02:23:09;14.10;;;2.03;;
12302;SDS011;6214;48.012;7.862;2022-11-23T02:28:23;14.10;;;1.70;;
12302;SDS011;6214;48.012;7.862;2022-11-23T02:30:54;13.38;;;1.45;;
12302;SDS011;6214;48.012;7.862;2022-11-23T02:33:21;13.98;;;1.30;;
12302;SDS011;6214;48.012;7.862;2022-11-23T02:35:48;13.70;;;1.80;;
12302;SDS011;6214;48.012;7.862;2022-11-23T02:38:20;12.95;;;1.50;;
12302;SDS011;6214;48.012;7.862;2022-11-23T02:40:48;13.88;;;1.70;;
12302;SDS011;6214;48.012;7.862;2022-11-23T02:43:15;13.50;;;1.40;;
12302;SDS011;6214;48.012;7.862;2022-11-23T02:45:45;14.80;;;1.70;;
12302;SDS011;6214;48.012;7.862;2022-11-23T02:48:20;14.40;;;1.63;;
12302;SDS011;6214;48.012;7.862;2022-11-23T02:50:47;14.52;;;1.70;;
12302;SDS011;6214;48.012;7.862;2022-11-23T02:53:16;15.55;;;2.47;;
12302;SDS011;6214;48.012;7.862;2022-11-23T02:55:43;13.90;;;1.80;;
12302;SDS011;6214;48.012;7.862;2022-11-23T02:58:10;13.35;;;1.70;;
12302;SDS011;6214;48.012;7.862;2022-11-23T03:00:37;14.63;;;1.63;;
12302;SDS011;6214;48.012;7.862;2022-11-23T03:03:04;16.08;;;2.10;;
12302;SDS011;6214;48.012;7.862;2022-11-23T03:05:31;13.27;;;1.45;;
12302;SDS011;6214;48.012;7.862;2022-11-23T03:07:58;13.10;;;1.60;;
12302;SDS011;6214;48.012;7.862;2022-11-23T03:10:25;14.48;;;1.60;;
12302;SDS011;6214;48.012;7.862;2022-11-23T03:12:53;13.90;;;1.63;;
12302;SDS011;6214;48.012;7.862;2022-11-23T03:15:21;15.15;;;1.70;;
12302;SDS011;6214;48.012;7.862;2022-11-23T03:17:49;14.95;;;1.70;;
12302;SDS011;6214;48.012;7.862;2022-11-23T03:20:16;14.50;;;1.85;;
12302;SDS011;6214;48.012;7.862;2022-11-23T03:22:44;14.02;;;1.60;;
12302;SDS011;6214;48.012;7.862;2022-11-23T03:25:11;13.40;;;1.58;;
12302;SDS011;6214;48.012;7.862;2022-11-23T03:27:38;14.20;;;1.90;;
12302;SDS011;6214;48.012;7.862;2022-11-23T03:30:06;13.50;;;1.80;;
12302;SDS011;6214;48.012;7.862;2022-11-23T03:32:34;13.90;;;1.58;;
12302;SDS011;6214;48.012;7.862;2022-11-23T03:35:02;16.20;;;2.20;;
12302;SDS011;6214;48.012;7.862;2022-11-23T03:37:29;14.40;;;1.80;;
12302;SDS011;6214;48.012;7.862;2022-11-23T03:39:56;15.32;;;2.00;;
12302;SDS011;6214;48.012;7.862;2022-11-23T03:42:23;14.25;;;1.67;;
12302;SDS011;6214;48.012;7.862;2022-11-23T03:44:49;15.38;;;1.95;;
12302;SDS011;6214;48.012;7.862;2022-11-23T03:47:16;14.40;;;1.90;;
12302;SDS011;6214;48.012;7.862;2022-11-23T03:49:43;13.82;;;1.98;;
12302;SDS011;6214;48.012;7.862;2022-11-23T03:52:10;13.27;;;1.50;;
12302;SDS011;6214;48.012;7.862;2022-11-23T03:54:37;14.68;;;1.85;;
12302;SDS011;6214;48.012;7.862;2022-11-23T03:57:04;13.73;;;1.60;;
12302;SDS011;6214;48.012;7.862;2022-11-23T03:59:32;15.52;;;1.85;;
12302;SDS011;6214;48.012;7.862;2022-11-23T04:01:59;15.50;;;2.00;;
12302;SDS011;6214;48.012;7.862;2022-11-23T04:04:26;14.85;;;2.00;;
12302;SDS011;6214;48.012;7.862;2022-11-23T04:06:53;15.48;;;1.90;;
12302;SDS011;6214;48.012;7.862;2022-11-23T04:09:21;13.18;;;1.30;;
12302;SDS011;6214;48.012;7.862;2022-11-23T04:11:48;12.50;;;1.50;;
12302;SDS011;6214;48.012;7.862;2022-11-23T04:14:15;14.88;;;1.70;;
12302;SDS011;6214;48.012;7.862;2022-11-23T04:16:42;15.32;;;2.10;;
12302;SDS011;6214;48.012;7.862;2022-11-23T04:19:09;13.90;;;1.60;;
12302;SDS011;6214;48.012;7.862;2022-11-23T04:21:36;13.93;;;1.50;;
12302;SDS011;6214;48.012;7.862;2022-11-23T04:24:03;14.52;;;1.67;;
12302;SDS011;6214;48.012;7.862;2022-11-23T04:26:30;14.63;;;1.80;;
12302;SDS011;6214;48.012;7.862;2022-11-23T04:28:56;16.50;;;2.00;;
12302;SDS011;6214;48.012;7.862;2022-11-23T04:31:23;15.30;;;1.95;;
12302;SDS011;6214;48.012;7.862;2022-11-23T04:33:50;14.25;;;2.00;;
12302;SDS011;6214;48.012;7.862;2022-11-23T04:36:17;15.18;;;2.00;;
12302;SDS011;6214;48.012;7.862;2022-11-23T04:38:44;16.10;;;1.92;;
12302;SDS011;6214;48.012;7.862;2022-11-23T04:41:10;15.57;;;2.22;;
12302;SDS011;6214;48.012;7.862;2022-11-23T04:43:37;14.93;;;2.10;;
12302;SDS011;6214;48.012;7.862;2022-11-23T04:46:04;15.75;;;1.75;;
12302;SDS011;6214;48.012;7.862;2022-11-23T04:48:31;15.10;;;1.70;;
12302;SDS011;6214;48.012;7.862;2022-11-23T04:50:58;14.25;;;2.10;;
12302;SDS011;6214;48.012;7.862;2022-11-23T04:53:25;15.05;;;1.80;;
12302;SDS011;6214;48.012;7.862;2022-11-23T04:55:51;13.68;;;1.70;;
12302;SDS011;6214;48.012;7.862;2022-11-23T04:58:18;13.60;;;1.58;;
12302;SDS011;6214;48.012;7.862;2022-11-23T05:00:45;15.70;;;1.70;;
12302;SDS011;6214;48.012;7.862;2022-11-23T05:03:12;15.60;;;1.90;;
12302;SDS011;6214;48.012;7.862;2022-11-23T05:05:39;15.25;;;1.60;;
12302;SDS011;6214;48.012;7.862;2022-11-23T05:08:06;14.00;;;1.50;;
12302;SDS011;6214;48.012;7.862;2022-11-23T05:10:34;16.08;;;1.70;;
12302;SDS011;6214;48.012;7.862;2022-11-23T05:13:02;15.57;;;2.00;;
12302;SDS011;6214;48.012;7.862;2022-11-23T05:15:29;14.52;;;1.83;;
12302;SDS011;6214;48.012;7.862;2022-11-23T05:18:05;14.68;;;1.67;;
12302;SDS011;6214;48.012;7.862;2022-11-23T05:20:32;14.07;;;1.80;;
12302;SDS011;6214;48.012;7.862;2022-11-23T05:23:00;13.95;;;1.85;;
12302;SDS011;6214;48.012;7.862;2022-11-23T05:25:26;12.85;;;1.33;;
12302;SDS011;6214;48.012;7.862;2022-11-23T05:27:53;15.07;;;1.95;;
12302;SDS011;6214;48.012;7.862;2022-11-23T05:30:20;15.48;;;1.60;;
12302;SDS011;6214;48.012;7.862;2022-11-23T05:32:47;13.50;;;1.60;;
12302;SDS011;6214;48.012;7.862;2022-11-23T05:35:14;15.43;;;1.70;;
12302;SDS011;6214;48.012;7.862;2022-11-23T05:37:41;13.80;;;1.50;;
12302;SDS011;6214;48.012;7.862;2022-11-23T05:40:08;13.48;;;1.65;;
12302;SDS011;6214;48.012;7.862;2022-11-23T05:42:36;14.55;;;1.70;;
12302;SDS011;6214;48.012;7.862;2022-11-23T05:45:03;14.35;;;1.65;;
12302;SDS011;6214;48.012;7.862;2022-11-23T05:47:36;15.57;;;1.90;;
12302;SDS011;6214;48.012;7.862;2022-11-23T05:50:03;15.85;;;1.80;;
12302;SDS011;6214;48.012;7.862;2022-11-23T05:52:31;15.07;;;1.55;;
12302;SDS011;6214;48.012;7.862;2022-11-23T05:54:58;17.08;;;2.17;;
12302;SDS011;6214;48.012;7.862;2022-11-23T05:57:24;15.80;;;2.40;;
12302;SDS011;6214;48.012;7.862;2022-11-23T05:59:52;16.75;;;3.30;;
12302;SDS011;6214;48.012;7.862;2022-11-23T06:02:19;15.07;;;2.00;;
12302;SDS011;6214;48.012;7.862;2022-11-23T06:04:46;14.02;;;1.60;;
12302;SDS011;6214;48.012;7.862;2022-11-23T06:07:13;13.88;;;1.70;;
12302;SDS011;6214;48.012;7.862;2022-11-23T06:09:39;13.07;;;1.55;;
12302;SDS011;6214;48.012;7.862;2022-11-23T06:12:06;13.18;;;1.60;;
12302;SDS011;6214;48.012;7.862;2022-11-23T06:14:33;15.77;;;2.00;;
12302;SDS011;6214;48.012;7.862;2022-11-23T06:17:00;14.10;;;1.80;;
12302;SDS011;6214;48.012;7.862;2022-11-23T06:19:27;13.82;;;1.60;;
12302;SDS011;6214;48.012;7.862;2022-11-23T06:21:56;13.77;;;1.40;;
12302;SDS011;6214;48.012;7.862;2022-11-23T06:24:23;14.00;;;1.50;;
12302;SDS011;6214;48.012;7.862;2022-11-23T06:26:50;13.27;;;1.60;;
12302;SDS011;6214;48.012;7.862;2022-11-23T06:29:20;13.80;;;1.85;;
12302;SDS011;6214;48.012;7.862;2022-11-23T06:31:47;13.40;;;1.30;;
12302;SDS011;6214;48.012;7.862;2022-11-23T06:34:14;14.03;;;2.00;;
12302;SDS011;6214;48.012;7.862;2022-11-23T06:36:41;14.27;;;1.80;;
12302;SDS011;6214;48.012;7.862;2022-11-23T06:39:08;14.60;;;1.80;;
12302;SDS011;6214;48.012;7.862;2022-11-23T06:41:35;16.00;;;2.10;;
12302;SDS011;6214;48.012;7.862;2022-11-23T06:44:02;14.52;;;2.10;;
12302;SDS011;6214;48.012;7.862;2022-11-23T06:46:29;15.20;;;2.10;;
12302;SDS011;6214;48.012;7.862;2022-11-23T06:48:56;14.40;;;2.40;;
12302;SDS011;6214;48.012;7.862;2022-11-23T06:51:22;14.60;;;2.30;;
12302;SDS011;6214;48.012;7.862;2022-11-23T06:53:49;15.07;;;2.20;;
12302;SDS011;6214;48.012;7.862;2022-11-23T06:56:16;16.85;;;2.60;;
12302;SDS011;6214;48.012;7.862;2022-11-23T06:58:43;15.20;;;2.45;;
12302;SDS011;6214;48.012;7.862;2022-11-23T07:01:10;13.30;;;2.33;;
12302;SDS011;6214;48.012;7.862;2022-11-23T07:03:37;13.85;;;2.40;;
12302;SDS011;6214;48.012;7.862;2022-11-23T07:06:04;13.05;;;2.20;;
12302;SDS011;6214;48.012;7.862;2022-11-23T07:08:32;13.57;;;2.30;;
12302;SDS011;6214;48.012;7.862;2022-11-23T07:11:01;14.07;;;2.20;;
12302;SDS011;6214;48.012;7.862;2022-11-23T07:13:28;14.18;;;2.00;;
12302;SDS011;6214;48.012;7.862;2022-11-23T07:15:56;13.63;;;1.73;;
12302;SDS011;6214;48.012;7.862;2022-11-23T07:18:24;14.63;;;2.35;;
12302;SDS011;6214;48.012;7.862;2022-11-23T07:20:51;14.63;;;1.60;;
12302;SDS011;6214;48.012;7.862;2022-11-23T07:23:18;13.70;;;1.90;;
12302;SDS011;6214;48.012;7.862;2022-11-23T07:25:45;12.45;;;1.45;;
12302;SDS011;6214;48.012;7.862;2022-11-23T07:28:12;14.93;;;2.00;;
12302;SDS011;6214;48.012;7.862;2022-11-23T07:30:39;14.98;;;2.00;;
12302;SDS011;6214;48.012;7.862;2022-11-23T07:33:07;14.38;;;1.88;;
12302;SDS011;6214;48.012;7.862;2022-11-23T07:35:36;13.48;;;1.70;;
12302;SDS011;6214;48.012;7.862;2022-11-23T07:38:05;13.40;;;1.60;;
12302;SDS011;6214;48.012;7.862;2022-11-23T07:40:37;12.67;;;1.40;;
12302;SDS011;6214;48.012;7.862;2022-11-23T07:43:04;12.55;;;1.67;;
12302;SDS011;6214;48.012;7.862;2022-11-23T07:45:32;14.33;;;1.70;;
12302;SDS011;6214;48.012;7.862;2022-11-23T07:48:00;14.38;;;1.83;;
12302;SDS011;6214;48.012;7.862;2022-11-23T07:50:30;13.10;;;1.40;;
12302;SDS011;6214;48.012;7.862;2022-11-23T07:52:59;13.20;;;1.50;;
12302;SDS011;6214;48.012;7.862;2022-11-23T07:55:27;13.23;;;1.50;;
12302;SDS011;6214;48.012;7.862;2022-11-23T07:57:56;13.52;;;1.50;;
12302;SDS011;6214;48.012;7.862;2022-11-23T08:00:24;12.95;;;1.30;;
12302;SDS011;6214;48.012;7.862;2022-11-23T08:02:52;13.68;;;1.27;;
12302;SDS011;6214;48.012;7.862;2022-11-23T08:05:39;13.00;;;1.20;;
12302;SDS011;6214;48.012;7.862;2022-11-23T08:08:06;13.90;;;1.63;;
12302;SDS011;6214;48.012;7.862;2022-11-23T08:10:33;14.60;;;2.10;;
12302;SDS011;6214;48.012;7.862;2022-11-23T08:13:07;14.50;;;1.90;;
12302;SDS011;6214;48.012;7.862;2022-11-23T08:15:34;15.00;;;2.07;;
12302;SDS011;6214;48.012;7.862;2022-11-23T08:18:02;13.43;;;1.80;;
12302;SDS011;6214;48.012;7.862;2022-11-23T08:20:29;13.55;;;1.60;;
12302;SDS011;6214;48.012;7.862;2022-11-23T08:22:56;12.20;;;1.40;;
12302;SDS011;6214;48.012;7.862;2022-11-23T08:25:24;12.70;;;1.13;;
12302;SDS011;6214;48.012;7.862;2022-11-23T08:28:02;13.52;;;1.40;;
12302;SDS011;6214;48.012;7.862;2022-11-23T08:30:31;13.98;;;1.80;;
12302;SDS011;6214;48.012;7.862;2022-11-23T08:33:01;13.07;;;1.30;;
12302;SDS011;6214;48.012;7.862;2022-11-23T08:35:31;12.95;;;1.45;;
12302;SDS011;6214;48.012;7.862;2022-11-23T08:38:02;15.57;;;1.80;;
12302;SDS011;6214;48.012;7.862;2022-11-23T08:40:30;12.90;;;1.40;;
12302;SDS011;6214;48.012;7.862;2022-11-23T08:42:57;13.20;;;1.30;;
12302;SDS011;6214;48.012;7.862;2022-11-23T08:45:24;13.05;;;1.30;;
12302;SDS011;6214;48.012;7.862;2022-11-23T08:47:51;11.77;;;1.00;;
12302;SDS011;6214;48.012;7.862;2022-11-23T08:50:19;13.13;;;1.15;;
12302;SDS011;6214;48.012;7.862;2022-11-23T08:52:46;12.85;;;1.25;;
12302;SDS011;6214;48.012;7.862;2022-11-23T08:55:13;12.75;;;1.08;;
12302;SDS011;6214;48.012;7.862;2022-11-23T08:57:40;12.65;;;1.10;;
12302;SDS011;6214;48.012;7.862;2022-11-23T09:00:07;12.60;;;1.17;;
12302;SDS011;6214;48.012;7.862;2022-11-23T09:02:34;12.48;;;1.10;;
12302;SDS011;6214;48.012;7.862;2022-11-23T09:05:01;12.80;;;1.50;;
12302;SDS011;6214;48.012;7.862;2022-11-23T09:07:30;12.15;;;1.30;;
12302;SDS011;6214;48.012;7.862;2022-11-23T09:09:57;12.98;;;1.38;;
12302;SDS011;6214;48.012;7.862;2022-11-23T09:12:24;12.35;;;1.38;;
12302;SDS011;6214;48.012;7.862;2022-11-23T09:14:51;13.00;;;1.20;;
12302;SDS011;6214;48.012;7.862;2022-11-23T09:17:18;12.60;;;1.50;;
12302;SDS011;6214;48.012;7.862;2022-11-23T09:19:45;12.55;;;1.20;;
12302;SDS011;6214;48.012;7.862;2022-11-23T09:22:12;12.85;;;1.33;;
12302;SDS011;6214;48.012;7.862;2022-11-23T09:24:39;12.45;;;1.00;;
12302;SDS011;6214;48.012;7.862;2022-11-23T09:27:05;12.75;;;1.40;;
12302;SDS011;6214;48.012;7.862;2022-11-23T09:29:33;12.20;;;1.10;;
12302;SDS011;6214;48.012;7.862;2022-11-23T09:32:00;13.65;;;1.30;;
12302;SDS011;6214;48.012;7.862;2022-11-23T09:34:28;12.25;;;1.40;;
12302;SDS011;6214;48.012;7.862;2022-11-23T09:36:55;12.15;;;1.40;;
12302;SDS011;6214;48.012;7.862;2022-11-23T09:39:22;12.85;;;1.52;;
12302;SDS011;6214;48.012;7.862;2022-11-23T09:52:49;12.10;;;1.20;;
12302;SDS011;6214;48.012;7.862;2022-11-23T09:57:44;12.02;;;1.05;;
12302;SDS011;6214;48.012;7.862;2022-11-23T10:00:20;11.73;;;1.10;;
12302;SDS011;6214;48.012;7.862;2022-11-23T10:02:48;11.77;;;1.20;;
12302;SDS011;6214;48.012;7.862;2022-11-23T10:05:25;12.50;;;1.67;;
12302;SDS011;6214;48.012;7.862;2022-11-23T10:11:05;11.13;;;0.80;;
12302;SDS011;6214;48.012;7.862;2022-11-23T10:14:04;12.70;;;1.30;;
12302;SDS011;6214;48.012;7.862;2022-11-23T10:16:56;11.98;;;1.17;;
12302;SDS011;6214;48.012;7.862;2022-11-23T10:19:44;11.88;;;0.90;;
12302;SDS011;6214;48.012;7.862;2022-11-23T10:25:21;11.73;;;0.90;;
12302;SDS011;6214;48.012;7.862;2022-11-23T10:27:50;11.57;;;1.00;;
12302;SDS011;6214;48.012;7.862;2022-11-23T10:30:20;12.70;;;1.20;;
12302;SDS011;6214;48.012;7.862;2022-11-23T10:35:18;11.85;;;1.40;;
12302;SDS011;6214;48.012;7.862;2022-11-23T10:37:59;12.50;;;1.27;;
12302;SDS011;6214;48.012;7.862;2022-11-23T10:43:38;11.88;;;1.10;;
12302;SDS011;6214;48.012;7.862;2022-11-23T10:46:24;11.70;;;1.00;;
12302;SDS011;6214;48.012;7.862;2022-11-23T10:48:53;11.20;;;0.90;;
12302;SDS011;6214;48.012;7.862;2022-11-23T10:51:28;10.90;;;0.70;;
12302;SDS011;6214;48.012;7.862;2022-11-23T10:54:03;11.68;;;0.93;;
12302;SDS011;6214;48.012;7.862;2022-11-23T10:56:32;11.60;;;1.10;;
12302;SDS011;6214;48.012;7.862;2022-11-23T10:59:00;11.93;;;1.00;;
12302;SDS011;6214;48.012;7.862;2022-11-23T11:01:27;11.63;;;1.00;;
12302;SDS011;6214;48.012;7.862;2022-11-23T11:03:57;12.40;;;1.02;;
12302;SDS011;6214;48.012;7.862;2022-11-23T11:06:32;11.45;;;0.93;;
12302;SDS011;6214;48.012;7.862;2022-11-23T11:09:02;12.00;;;1.10;;
12302;SDS011;6214;48.012;7.862;2022-11-23T11:11:37;11.60;;;1.08;;
12302;SDS011;6214;48.012;7.862;2022-11-23T11:16:46;12.70;;;1.00;;
12302;SDS011;6214;48.012;7.862;2022-11-23T11:21:54;12.70;;;1.00;;
12302;SDS011;6214;48.012;7.862;2022-11-23T11:24:27;13.88;;;1.40;;
12302;SDS011;6214;48.012;7.862;2022-11-23T11:26:58;12.48;;;0.90;;
12302;SDS011;6214;48.012;7.862;2022-11-23T11:29:32;13.53;;;1.23;;
12302;SDS011;6214;48.012;7.862;2022-11-23T11:32:20;13.60;;;1.70;;
12302;SDS011;6214;48.012;7.862;2022-11-23T11:38:01;12.20;;;1.20;;
12302;SDS011;6214;48.012;7.862;2022-11-23T11:40:49;12.68;;;1.25;;
12302;SDS011;6214;48.012;7.862;2022-11-23T11:43:36;11.80;;;0.90;;
12302;SDS011;6214;48.012;7.862;2022-11-23T11:46:14;11.60;;;0.82;;
12302;SDS011;6214;48.012;7.862;2022-11-23T11:48:58;12.40;;;1.00;;
12302;SDS011;6214;48.012;7.862;2022-11-23T11:51:57;11.80;;;1.10;;
12302;SDS011;6214;48.012;7.862;2022-11-23T11:54:30;12.30;;;1.15;;
12302;SDS011;6214;48.012;7.862;2022-11-23T11:57:30;11.60;;;0.90;;
12302;SDS011;6214;48.012;7.862;2022-11-23T11:59:58;12.95;;;1.10;;
12302;SDS011;6214;48.012;7.862;2022-11-23T12:05:18;11.80;;;1.00;;
12302;SDS011;6214;48.012;7.862;2022-11-23T12:10:37;12.00;;;0.90;;
12302;SDS011;6214;48.012;7.862;2022-11-23T12:13:15;12.50;;;1.05;;
12302;SDS011;6214;48.012;7.862;2022-11-23T12:15:53;12.30;;;1.20;;
12302;SDS011;6214;48.012;7.862;2022-11-23T12:21:36;11.88;;;0.80;;
12302;SDS011;6214;48.012;7.862;2022-11-23T12:30:09;12.30;;;0.80;;
12302;SDS011;6214;48.012;7.862;2022-11-23T12:32:49;11.80;;;0.80;;
12302;SDS011;6214;48.012;7.862;2022-11-23T12:38:19;11.47;;;0.80;;
12302;SDS011;6214;48.012;7.862;2022-11-23T12:43:32;11.90;;;1.07;;
12302;SDS011;6214;48.012;7.862;2022-11-23T12:54:55;11.45;;;0.70;;
12302;SDS011;6214;48.012;7.862;2022-11-23T12:57:39;11.90;;;0.90;;
12302;SDS011;6214;48.012;7.862;2022-11-23T13:00:29;11.73;;;1.00;;
12302;SDS011;6214;48.012;7.862;2022-11-23T13:03:13;11.90;;;1.20;;
12302;SDS011;6214;48.012;7.862;2022-11-23T13:09:10;11.75;;;0.88;;
12302;SDS011;6214;48.012;7.862;2022-11-23T13:23:11;11.98;;;0.80;;
12302;SDS011;6214;48.012;7.862;2022-11-23T13:25:38;12.63;;;1.10;;
12302;SDS011;6214;48.012;7.862;2022-11-23T13:33:42;12.43;;;1.08;;
12302;SDS011;6214;48.012;7.862;2022-11-23T13:36:11;12.00;;;1.20;;
12302;SDS011;6214;48.012;7.862;2022-11-23T13:42:07;11.70;;;0.80;;
12302;SDS011;6214;48.012;7.862;2022-11-23T13:44:36;12.13;;;0.90;;
12302;SDS011;6214;48.012;7.862;2022-11-23T13:47:04;13.00;;;0.90;;
12302;SDS011;6214;48.012;7.862;2022-11-23T13:50:06;11.90;;;0.90;;
12302;SDS011;6214;48.012;7.862;2022-11-23T13:52:33;11.80;;;0.90;;
12302;SDS011;6214;48.012;7.862;2022-11-23T14:00:52;12.10;;;1.00;;
12302;SDS011;6214;48.012;7.862;2022-11-23T14:14:43;11.90;;;1.10;;
12302;SDS011;6214;48.012;7.862;2022-11-23T14:37:25;12.30;;;1.50;;
12302;SDS011;6214;48.012;7.862;2022-11-23T14:42:53;12.98;;;1.35;;
12302;SDS011;6214;48.012;7.862;2022-11-23T14:45:28;11.40;;;0.80;;
12302;SDS011;6214;48.012;7.862;2022-11-23T14:51:22;11.70;;;0.90;;
12302;SDS011;6214;48.012;7.862;2022-11-23T14:53:52;12.80;;;1.30;;
12302;SDS011;6214;48.012;7.862;2022-11-23T14:56:31;12.23;;;1.10;;
12302;SDS011;6214;48.012;7.862;2022-11-23T15:07:02;12.77;;;1.10;;
12302;SDS011;6214;48.012;7.862;2022-11-23T15:14:53;12.20;;;1.20;;
12302;SDS011;6214;48.012;7.862;2022-11-23T15:17:24;12.70;;;1.80;;
12302;SDS011;6214;48.012;7.862;2022-11-23T15:19:56;12.50;;;1.75;;
12302;SDS011;6214;48.012;7.862;2022-11-23T15:22:24;14.70;;;3.20;;
12302;SDS011;6214;48.012;7.862;2022-11-23T15:24:53;13.40;;;2.50;;
12302;SDS011;6214;48.012;7.862;2022-11-23T15:27:30;13.93;;;2.25;;
12302;SDS011;6214;48.012;7.862;2022-11-23T15:29:58;13.02;;;1.73;;
12302;SDS011;6214;48.012;7.862;2022-11-23T15:34:59;11.80;;;1.10;;
12302;SDS011;6214;48.012;7.862;2022-11-23T15:37:29;13.20;;;2.38;;
12302;SDS011;6214;48.012;7.862;2022-11-23T15:39:57;12.50;;;2.05;;
12302;SDS011;6214;48.012;7.862;2022-11-23T15:42:25;12.80;;;1.70;;
12302;SDS011;6214;48.012;7.862;2022-11-23T15:44:53;13.18;;;1.88;;
12302;SDS011;6214;48.012;7.862;2022-11-23T15:47:23;34.55;;;22.90;;
12302;SDS011;6214;48.012;7.862;2022-11-23T15:49:58;25.58;;;14.48;;
12302;SDS011;6214;48.012;7.862;2022-11-23T15:52:34;15.20;;;4.30;;
12302;SDS011;6214;48.012;7.862;2022-11-23T15:55:06;17.50;;;6.30;;
12302;SDS011;6214;48.012;7.862;2022-11-23T15:57:37;17.25;;;5.65;;
12302;SDS011;6214;48.012;7.862;2022-11-23T16:00:06;14.75;;;3.33;;
12302;SDS011;6214;48.012;7.862;2022-11-23T16:02:35;13.75;;;2.80;;
12302;SDS011;6214;48.012;7.862;2022-11-23T16:05:04;15.10;;;3.42;;
12302;SDS011;6214;48.012;7.862;2022-11-23T16:07:54;19.77;;;7.90;;
12302;SDS011;6214;48.012;7.862;2022-11-23T16:10:26;20.02;;;10.60;;
12302;SDS011;6214;48.012;7.862;2022-11-23T16:12:59;21.63;;;9.13;;
12302;SDS011;6214;48.012;7.862;2022-11-23T16:18:04;15.70;;;5.15;;
12302;SDS011;6214;48.012;7.862;2022-11-23T16:20:53;16.50;;;4.65;;
12302;SDS011;6214;48.012;7.862;2022-11-23T16:23:23;14.57;;;4.70;;
12302;SDS011;6214;48.012;7.862;2022-11-23T16:26:03;14.73;;;3.20;;
12302;SDS011;6214;48.012;7.862;2022-11-23T16:28:31;13.40;;;3.10;;
12302;SDS011;6214;48.012;7.862;2022-11-23T16:31:05;14.70;;;2.40;;
12302;SDS011;6214;48.012;7.862;2022-11-23T16:33:50;16.50;;;4.00;;
12302;SDS011;6214;48.012;7.862;2022-11-23T16:36:17;12.40;;;1.60;;
12302;SDS011;6214;48.012;7.862;2022-11-23T16:38:44;13.20;;;2.00;;
12302;SDS011;6214;48.012;7.862;2022-11-23T16:41:10;16.52;;;4.60;;
12302;SDS011;6214;48.012;7.862;2022-11-23T16:43:37;14.52;;;3.60;;
12302;SDS011;6214;48.012;7.862;2022-11-23T16:46:04;14.18;;;2.83;;
12302;SDS011;6214;48.012;7.862;2022-11-23T16:48:35;14.60;;;2.70;;
12302;SDS011;6214;48.012;7.862;2022-11-23T16:51:02;14.30;;;3.55;;
12302;SDS011;6214;48.012;7.862;2022-11-23T16:53:28;13.10;;;2.72;;
12302;SDS011;6214;48.012;7.862;2022-11-23T16:56:23;14.10;;;3.60;;
12302;SDS011;6214;48.012;7.862;2022-11-23T16:58:51;13.00;;;2.80;;
12302;SDS011;6214;48.012;7.862;2022-11-23T17:01:19;14.18;;;3.00;;
12302;SDS011;6214;48.012;7.862;2022-11-23T17:03:49;15.10;;;5.20;;
12302;SDS011;6214;48.012;7.862;2022-11-23T17:06:17;15.73;;;5.13;;
12302;SDS011;6214;48.012;7.862;2022-11-23T17:08:48;15.48;;;5.30;;
12302;SDS011;6214;48.012;7.862;2022-11-23T17:11:26;14.60;;;4.00;;
12302;SDS011;6214;48.012;7.862;2022-11-23T17:13:53;14.73;;;3.90;;
12302;SDS011;6214;48.012;7.862;2022-11-23T17:16:21;13.47;;;2.80;;
12302;SDS011;6214;48.012;7.862;2022-11-23T17:18:50;13.50;;;2.60;;
12302;SDS011;6214;48.012;7.862;2022-11-23T17:21:17;13.63;;;2.00;;
12302;SDS011;6214;48.012;7.862;2022-11-23T17:23:44;13.00;;;1.80;;
12302;SDS011;6214;48.012;7.862;2022-11-23T17:26:28;13.13;;;2.30;;
12302;SDS011;6214;48.012;7.862;2022-11-23T17:28:59;11.85;;;1.40;;
12302;SDS011;6214;48.012;7.862;2022-11-23T17:31:28;12.15;;;1.52;;
12302;SDS011;6214;48.012;7.862;2022-11-23T17:33:56;12.07;;;1.50;;
12302;SDS011;6214;48.012;7.862;2022-11-23T17:36:24;12.57;;;1.38;;
12302;SDS011;6214;48.012;7.862;2022-11-23T17:38:51;12.10;;;1.40;;
12302;SDS011;6214;48.012;7.862;2022-11-23T17:41:19;11.93;;;1.40;;